createdAt,value
2018-09-30T00:01:09.263Z,25.37
2018-09-30T00:03:38.114Z,27.10
2018-09-30T00:06:06.891Z,26.00
2018-09-30T00:08:36.035Z,25.70
2018-09-30T00:11:04.864Z,26.13
2018-09-30T00:13:33.776Z,26.83
2018-09-30T00:16:02.628Z,27.00
2018-09-30T00:18:31.860Z,26.97
2018-09-30T00:21:01.372Z,26.27
2018-09-30T00:23:34.310Z,26.53
2018-09-30T00:26:08.227Z,25.67
2018-09-30T00:28:37.082Z,26.00
2018-09-30T00:31:05.987Z,26.13
2018-09-30T00:33:38.555Z,26.27
2018-09-30T00:36:07.474Z,27.27
2018-09-30T00:38:36.491Z,27.40
2018-09-30T00:41:05.737Z,28.20
2018-09-30T00:43:34.524Z,26.33
2018-09-30T00:46:03.332Z,26.00
2018-09-30T00:48:32.323Z,25.83
2018-09-30T00:51:01.325Z,25.30
2018-09-30T00:53:30.124Z,25.50
2018-09-30T00:55:59.030Z,26.20
2018-09-30T00:58:27.871Z,26.03
2018-09-30T01:00:56.908Z,25.73
2018-09-30T01:03:25.780Z,27.00
2018-09-30T01:05:54.603Z,27.53
2018-09-30T01:08:23.460Z,27.37
2018-09-30T01:10:52.351Z,26.20
2018-09-30T01:13:21.216Z,28.97
2018-09-30T01:15:50.031Z,27.50
2018-09-30T01:18:18.821Z,27.83
2018-09-30T01:20:48.054Z,25.87
2018-09-30T01:23:17.233Z,26.23
2018-09-30T01:25:46.029Z,26.47
2018-09-30T01:28:15.523Z,26.07
2018-09-30T01:30:44.380Z,26.73
2018-09-30T01:33:13.222Z,27.10
2018-09-30T01:35:42.012Z,26.37
2018-09-30T01:38:10.870Z,25.57
2018-09-30T01:40:39.783Z,26.90
2018-09-30T01:43:08.632Z,25.20
2018-09-30T01:45:37.504Z,26.30
2018-09-30T01:48:06.564Z,25.10
2018-09-30T01:50:35.380Z,24.03
2018-09-30T01:53:04.236Z,25.20
2018-09-30T01:55:33.040Z,23.67
2018-09-30T01:58:01.887Z,23.30
2018-09-30T02:00:30.832Z,22.10
2018-09-30T02:03:00.004Z,22.20
2018-09-30T02:05:28.971Z,22.17
2018-09-30T02:07:57.775Z,21.97
2018-09-30T02:10:26.655Z,21.03
2018-09-30T02:12:55.484Z,21.20
2018-09-30T02:15:24.427Z,20.33
2018-09-30T02:17:53.319Z,20.80
2018-09-30T02:20:22.191Z,19.80
2018-09-30T02:22:51.692Z,19.80
2018-09-30T02:25:20.515Z,20.67
2018-09-30T02:27:49.374Z,19.60
2018-09-30T02:30:18.287Z,20.80
2018-09-30T02:32:47.080Z,21.27
2018-09-30T02:35:15.859Z,20.83
2018-09-30T02:37:44.735Z,20.03
2018-09-30T02:40:13.581Z,19.43
2018-09-30T02:42:42.383Z,19.83
2018-09-30T02:45:11.226Z,20.70
2018-09-30T02:47:40.068Z,18.70
2018-09-30T02:50:08.889Z,18.07
2018-09-30T02:52:37.735Z,18.73
2018-09-30T02:55:06.536Z,18.30
2018-09-30T02:57:35.581Z,17.10
2018-09-30T03:00:05.934Z,16.70
2018-09-30T03:02:34.805Z,16.23
2018-09-30T03:05:03.655Z,16.77
2018-09-30T03:07:37.645Z,16.00
2018-09-30T03:10:07.630Z,15.17
2018-09-30T03:12:36.468Z,15.20
2018-09-30T03:15:05.345Z,14.60
2018-09-30T03:17:34.168Z,14.20
2018-09-30T03:20:03.008Z,14.57
2018-09-30T03:22:31.867Z,14.57
2018-09-30T03:25:00.678Z,12.80
2018-09-30T03:27:29.511Z,12.93
2018-09-30T03:29:58.338Z,13.17
2018-09-30T03:32:27.215Z,14.20
2018-09-30T03:34:55.980Z,13.07
2018-09-30T03:37:24.788Z,13.80
2018-09-30T03:39:53.581Z,12.50
2018-09-30T03:42:22.495Z,11.90
2018-09-30T03:44:51.361Z,12.53
2018-09-30T03:47:20.145Z,12.40
2018-09-30T03:49:48.956Z,12.13
2018-09-30T03:52:17.931Z,12.03
2018-09-30T03:54:46.779Z,12.37
2018-09-30T03:57:15.640Z,12.30
2018-09-30T03:59:44.913Z,12.23
2018-09-30T04:02:13.920Z,11.80
2018-09-30T04:04:42.723Z,11.80
2018-09-30T04:07:11.522Z,11.77
2018-09-30T04:09:40.383Z,12.10
2018-09-30T04:12:09.475Z,11.93
2018-09-30T04:14:38.264Z,11.60
2018-09-30T04:17:07.101Z,11.53
2018-09-30T04:19:36.166Z,11.10
2018-09-30T04:22:05.135Z,12.67
2018-09-30T04:24:34.055Z,11.57
2018-09-30T04:27:02.862Z,11.10
2018-09-30T04:29:31.672Z,11.70
2018-09-30T04:32:00.482Z,11.77
2018-09-30T04:34:29.340Z,10.63
2018-09-30T04:36:58.136Z,10.13
2018-09-30T04:39:26.925Z,10.20
2018-09-30T04:41:55.728Z,11.13
2018-09-30T04:44:24.543Z,10.43
2018-09-30T04:46:53.341Z,11.17
2018-09-30T04:49:22.143Z,10.33
2018-09-30T04:51:50.968Z,10.30
2018-09-30T04:54:19.922Z,11.10
2018-09-30T04:56:48.768Z,10.37
2018-09-30T04:59:17.986Z,10.33
2018-09-30T05:01:46.811Z,10.37
2018-09-30T05:04:15.600Z,12.20
2018-09-30T05:06:44.365Z,11.30
2018-09-30T05:09:13.159Z,11.23
2018-09-30T05:11:41.981Z,10.80
2018-09-30T05:14:10.776Z,12.80
2018-09-30T05:16:39.901Z,13.00
2018-09-30T05:19:08.838Z,12.33
2018-09-30T05:21:37.715Z,13.67
2018-09-30T05:24:06.923Z,13.13
2018-09-30T05:26:35.800Z,12.63
2018-09-30T05:29:05.226Z,13.67
2018-09-30T05:31:34.420Z,14.53
2018-09-30T05:34:03.276Z,13.37
2018-09-30T05:36:32.074Z,13.30
2018-09-30T05:39:01.040Z,14.50
2018-09-30T05:41:29.937Z,13.93
2018-09-30T05:43:58.798Z,12.93
2018-09-30T05:46:27.712Z,13.67
2018-09-30T05:48:56.831Z,15.60
2018-09-30T05:51:25.916Z,17.83
2018-09-30T05:53:54.790Z,16.33
2018-09-30T05:56:25.616Z,16.63
2018-09-30T05:58:54.941Z,17.50
2018-09-30T06:01:23.860Z,16.57
2018-09-30T06:03:52.680Z,17.80
2018-09-30T06:06:21.897Z,16.93
2018-09-30T06:08:50.793Z,17.10
2018-09-30T06:11:20.218Z,17.33
2018-09-30T06:13:49.027Z,20.10
2018-09-30T06:16:18.039Z,18.20
2018-09-30T06:18:46.927Z,17.00
2018-09-30T06:21:15.839Z,18.37
2018-09-30T06:23:44.827Z,17.97
2018-09-30T06:26:14.071Z,17.10
2018-09-30T06:28:42.888Z,18.57
2018-09-30T06:31:11.756Z,19.70
2018-09-30T06:33:40.521Z,18.63
2018-09-30T06:36:09.328Z,18.93
2018-09-30T06:38:38.116Z,18.33
2018-09-30T06:41:07.140Z,21.60
2018-09-30T06:43:35.978Z,20.13
2018-09-30T06:46:04.786Z,21.10
2018-09-30T06:48:33.824Z,22.40
2018-09-30T06:51:02.868Z,21.73
2018-09-30T06:53:31.911Z,23.73
2018-09-30T06:56:00.787Z,22.63
2018-09-30T06:58:29.877Z,21.23
2018-09-30T07:00:58.796Z,22.20
2018-09-30T07:03:27.977Z,23.33
2018-09-30T07:05:56.810Z,22.53
2018-09-30T07:08:27.494Z,21.77
2018-09-30T07:10:56.414Z,22.17
2018-09-30T07:13:25.328Z,23.53
2018-09-30T07:15:54.180Z,22.83
2018-09-30T07:18:23.028Z,23.20
2018-09-30T07:20:51.889Z,22.00
2018-09-30T07:23:20.801Z,23.10
2018-09-30T07:25:49.627Z,22.50
2018-09-30T07:28:18.432Z,23.93
2018-09-30T07:30:47.284Z,24.10
2018-09-30T07:33:16.204Z,21.87
2018-09-30T07:35:45.545Z,23.97
2018-09-30T07:38:14.536Z,25.57
2018-09-30T07:40:43.360Z,23.73
2018-09-30T07:43:12.187Z,24.57
2018-09-30T07:45:40.994Z,27.40
2018-09-30T07:48:09.800Z,25.37
2018-09-30T07:50:38.801Z,27.53
2018-09-30T07:53:07.767Z,26.37
2018-09-30T07:55:36.679Z,25.93
2018-09-30T07:58:05.534Z,25.13
2018-09-30T08:00:34.323Z,23.70
2018-09-30T08:03:03.606Z,22.07
2018-09-30T08:05:32.532Z,21.30
2018-09-30T08:08:01.389Z,22.63
2018-09-30T08:10:33.186Z,21.33
2018-09-30T08:13:01.993Z,21.50
2018-09-30T08:15:30.912Z,21.73
2018-09-30T08:17:59.763Z,21.63
2018-09-30T08:20:28.597Z,14.37
2018-09-30T08:22:57.511Z,12.77
2018-09-30T08:25:26.396Z,12.73
2018-09-30T08:27:55.225Z,12.43
2018-09-30T08:30:25.379Z,12.23
2018-09-30T08:32:54.271Z,12.50
2018-09-30T08:35:23.184Z,11.93
2018-09-30T08:37:57.228Z,12.33
2018-09-30T08:40:31.185Z,10.80
2018-09-30T08:43:00.084Z,11.53
2018-09-30T08:45:29.039Z,11.57
2018-09-30T08:47:58.188Z,11.17
2018-09-30T08:50:27.029Z,10.80
2018-09-30T08:52:56.064Z,9.90
2018-09-30T08:55:25.010Z,9.77
2018-09-30T08:57:53.976Z,10.03
2018-09-30T09:00:22.840Z,11.00
2018-09-30T09:02:51.654Z,11.60
2018-09-30T09:05:20.564Z,10.50
2018-09-30T09:07:49.365Z,9.43
2018-09-30T09:10:18.249Z,10.50
2018-09-30T09:12:47.084Z,10.23
2018-09-30T09:15:15.949Z,10.93
2018-09-30T09:17:44.785Z,10.03
2018-09-30T09:20:13.608Z,9.07
2018-09-30T09:22:42.451Z,10.27
2018-09-30T09:25:14.522Z,8.17
2018-09-30T09:27:43.508Z,8.53
2018-09-30T09:30:12.417Z,8.17
2018-09-30T09:32:41.249Z,7.90
2018-09-30T09:35:11.068Z,8.40
2018-09-30T09:37:39.990Z,8.17
2018-09-30T09:40:10.389Z,7.37
2018-09-30T09:42:39.416Z,7.67
2018-09-30T09:45:08.898Z,7.47
2018-09-30T09:47:37.692Z,6.97
2018-09-30T09:50:07.596Z,7.60
2018-09-30T09:52:36.940Z,7.63
2018-09-30T09:55:06.055Z,7.73
2018-09-30T09:57:34.876Z,7.70
2018-09-30T10:00:04.994Z,7.00
2018-09-30T10:02:33.786Z,6.87
2018-09-30T10:05:02.633Z,6.93
2018-09-30T10:07:31.593Z,6.83
2018-09-30T10:10:00.512Z,8.33
2018-09-30T10:12:29.415Z,9.40
2018-09-30T10:14:58.217Z,9.60
2018-09-30T10:17:27.015Z,11.67
2018-09-30T10:19:55.808Z,10.07
2018-09-30T10:22:24.611Z,8.77
2018-09-30T10:24:53.502Z,7.97
2018-09-30T10:27:22.387Z,6.67
2018-09-30T10:29:51.200Z,7.43
2018-09-30T10:32:20.103Z,7.53
2018-09-30T10:34:48.920Z,6.43
2018-09-30T10:37:17.838Z,7.07
2018-09-30T10:39:46.621Z,6.53
2018-09-30T10:42:15.444Z,6.93
2018-09-30T10:44:44.245Z,5.57
2018-09-30T10:47:13.096Z,5.23
2018-09-30T10:49:41.930Z,5.30
2018-09-30T10:52:10.825Z,5.30
2018-09-30T10:54:39.678Z,4.67
2018-09-30T10:57:08.559Z,4.57
2018-09-30T10:59:37.432Z,4.30
2018-09-30T11:02:06.425Z,4.37
2018-09-30T11:04:35.356Z,3.83
2018-09-30T11:07:04.271Z,3.80
2018-09-30T11:09:33.050Z,3.70
2018-09-30T11:12:02.017Z,3.80
2018-09-30T11:14:31.224Z,3.50
2018-09-30T11:17:00.179Z,3.90
2018-09-30T11:19:28.998Z,4.20
2018-09-30T11:21:57.864Z,4.00
2018-09-30T11:24:26.681Z,4.03
2018-09-30T11:26:55.583Z,3.90
2018-09-30T11:29:24.565Z,3.70
2018-09-30T11:31:53.465Z,4.20
2018-09-30T11:34:22.453Z,3.90
2018-09-30T11:36:51.335Z,4.10
2018-09-30T11:39:20.178Z,3.83
2018-09-30T11:41:48.980Z,3.60
2018-09-30T11:44:17.779Z,3.40
2018-09-30T11:46:46.573Z,3.80
2018-09-30T11:49:15.357Z,3.77
2018-09-30T11:51:44.190Z,4.00
2018-09-30T11:54:13.056Z,4.47
2018-09-30T11:56:41.861Z,4.40
2018-09-30T11:59:10.794Z,4.43
2018-09-30T12:01:39.594Z,5.37
2018-09-30T12:04:08.684Z,4.33
2018-09-30T12:06:37.546Z,4.43
2018-09-30T12:09:08.473Z,4.43
2018-09-30T12:11:37.377Z,4.57
2018-09-30T12:14:06.240Z,4.20
2018-09-30T12:16:35.274Z,4.60
2018-09-30T12:19:04.074Z,5.47
2018-09-30T12:21:32.912Z,4.63
2018-09-30T12:24:01.830Z,5.03
2018-09-30T12:26:30.823Z,5.77
2018-09-30T12:28:59.610Z,5.40
2018-09-30T12:31:28.544Z,6.47
2018-09-30T12:33:57.680Z,6.70
2018-09-30T12:36:26.637Z,7.13
2018-09-30T12:38:55.524Z,7.13
2018-09-30T12:41:24.496Z,6.57
2018-09-30T12:43:53.383Z,9.17
2018-09-30T12:46:22.240Z,9.97
2018-09-30T12:48:51.072Z,12.20
2018-09-30T12:51:19.857Z,11.50
2018-09-30T12:53:48.796Z,10.83
2018-09-30T12:56:17.635Z,11.80
2018-09-30T12:58:46.493Z,11.43
2018-09-30T13:01:15.365Z,11.47
2018-09-30T13:03:44.286Z,11.53
2018-09-30T13:06:13.396Z,11.67
2018-09-30T13:08:42.270Z,11.57
2018-09-30T13:11:11.200Z,10.90
2018-09-30T13:13:40.080Z,10.77
2018-09-30T13:16:09.049Z,10.83
2018-09-30T13:18:38.040Z,10.57
2018-09-30T13:21:07.073Z,10.57
2018-09-30T13:23:36.176Z,10.40
2018-09-30T13:26:05.012Z,10.43
2018-09-30T13:28:33.860Z,10.33
2018-09-30T13:31:02.704Z,11.27
2018-09-30T13:33:31.536Z,10.87
2018-09-30T13:36:00.691Z,10.67
2018-09-30T13:38:29.516Z,10.47
2018-09-30T13:40:58.553Z,11.00
2018-09-30T13:43:29.650Z,10.83
2018-09-30T13:45:58.612Z,10.53
2018-09-30T13:48:27.706Z,11.33
2018-09-30T13:50:56.704Z,10.33
2018-09-30T13:53:25.593Z,11.10
2018-09-30T13:55:54.522Z,11.37
2018-09-30T13:58:23.351Z,11.33
2018-09-30T14:00:52.367Z,10.77
2018-09-30T14:03:21.265Z,10.80
2018-09-30T14:05:50.177Z,10.73
2018-09-30T14:08:19.064Z,10.10
2018-09-30T14:10:47.856Z,10.40
2018-09-30T14:13:16.709Z,10.63
2018-09-30T14:15:45.868Z,10.13
2018-09-30T14:18:14.727Z,9.70
2018-09-30T14:20:43.568Z,9.87
2018-09-30T14:23:12.518Z,9.33
2018-09-30T14:25:41.449Z,10.00
2018-09-30T14:28:10.247Z,9.90
2018-09-30T14:30:39.083Z,10.10
2018-09-30T14:33:08.152Z,10.33
2018-09-30T14:35:37.520Z,9.70
2018-09-30T14:38:06.562Z,10.67
2018-09-30T14:40:35.365Z,11.00
2018-09-30T14:43:04.240Z,11.60
2018-09-30T14:45:33.067Z,11.30
2018-09-30T14:48:01.950Z,12.20
2018-09-30T14:50:32.231Z,12.30
2018-09-30T14:53:01.433Z,14.30
2018-09-30T14:55:30.433Z,14.07
2018-09-30T14:57:59.368Z,12.83
2018-09-30T15:00:28.204Z,11.53
2018-09-30T15:02:57.035Z,12.27
2018-09-30T15:05:25.833Z,11.40
2018-09-30T15:07:54.694Z,11.77
2018-09-30T15:10:23.601Z,11.07
2018-09-30T15:12:52.449Z,11.23
2018-09-30T15:15:21.402Z,12.63
2018-09-30T15:17:50.165Z,11.57
2018-09-30T15:20:19.116Z,11.00
2018-09-30T15:22:47.980Z,11.50
2018-09-30T15:25:16.892Z,10.83
2018-09-30T15:27:45.773Z,11.53
2018-09-30T15:30:14.718Z,11.43
2018-09-30T15:32:43.548Z,11.63
2018-09-30T15:35:12.655Z,11.60
2018-09-30T15:37:41.648Z,11.53
2018-09-30T15:40:10.541Z,12.27
2018-09-30T15:42:39.353Z,11.87
2018-09-30T15:45:08.277Z,11.60
2018-09-30T15:47:37.103Z,11.73
2018-09-30T15:50:06.335Z,11.17
2018-09-30T15:52:35.132Z,11.83
2018-09-30T15:55:10.269Z,11.30
2018-09-30T15:57:39.130Z,11.93
2018-09-30T16:00:08.109Z,10.60
2018-09-30T16:02:36.998Z,11.13
2018-09-30T16:05:05.923Z,11.53
2018-09-30T16:07:34.771Z,11.40
2018-09-30T16:10:03.782Z,11.07
2018-09-30T16:12:32.709Z,11.27
2018-09-30T16:15:01.545Z,11.57
2018-09-30T16:17:30.367Z,11.93
2018-09-30T16:19:59.799Z,11.37
2018-09-30T16:22:28.609Z,11.60
2018-09-30T16:24:57.624Z,11.33
2018-09-30T16:27:26.496Z,11.33
2018-09-30T16:29:55.316Z,11.50
2018-09-30T16:32:24.230Z,11.27
2018-09-30T16:34:53.258Z,10.90
2018-09-30T16:37:22.178Z,10.80
2018-09-30T16:39:51.004Z,10.90
2018-09-30T16:42:19.932Z,10.63
2018-09-30T16:44:48.756Z,11.80
2018-09-30T16:47:17.571Z,10.43
2018-09-30T16:49:46.463Z,10.03
2018-09-30T16:52:15.434Z,9.57
2018-09-30T16:54:44.454Z,11.03
2018-09-30T16:57:13.322Z,9.67
2018-09-30T16:59:42.297Z,10.33
2018-09-30T17:02:12.152Z,10.13
2018-09-30T17:04:41.040Z,10.03
2018-09-30T17:07:09.941Z,9.63
2018-09-30T17:09:38.825Z,9.20
2018-09-30T17:12:08.896Z,9.37
2018-09-30T17:14:37.788Z,9.37
2018-09-30T17:17:07.123Z,9.73
2018-09-30T17:19:35.936Z,9.97
2018-09-30T17:22:04.823Z,9.47
2018-09-30T17:24:33.837Z,9.97
2018-09-30T17:27:01.618Z,10.73
2018-09-30T17:29:30.569Z,10.60
2018-09-30T17:31:59.482Z,9.77
2018-09-30T17:34:28.426Z,9.57
2018-09-30T17:36:57.282Z,10.17
2018-09-30T17:39:26.320Z,9.80
2018-09-30T17:41:55.279Z,9.97
2018-09-30T17:44:24.141Z,8.67
2018-09-30T17:46:52.967Z,9.33
2018-09-30T17:49:21.884Z,9.03
2018-09-30T17:51:50.788Z,8.13
2018-09-30T17:54:19.623Z,7.77
2018-09-30T17:56:48.529Z,7.87
2018-09-30T17:59:17.724Z,8.53
2018-09-30T18:01:46.770Z,8.50
2018-09-30T18:04:15.780Z,8.03
2018-09-30T18:06:44.693Z,8.20
2018-09-30T18:09:13.749Z,8.03
2018-09-30T18:11:42.973Z,7.93
2018-09-30T18:14:11.848Z,8.17
2018-09-30T18:16:40.681Z,8.83
2018-09-30T18:19:09.661Z,8.20
2018-09-30T18:21:38.620Z,9.27
2018-09-30T18:24:08.329Z,8.73
2018-09-30T18:26:37.539Z,9.00
2018-09-30T18:29:06.736Z,7.80
2018-09-30T18:31:35.961Z,8.20
2018-09-30T18:34:06.177Z,8.67
2018-09-30T18:36:35.313Z,7.70
2018-09-30T18:39:05.308Z,7.63
2018-09-30T18:41:34.298Z,7.80
2018-09-30T18:44:03.426Z,7.93
2018-09-30T18:46:32.708Z,8.13
2018-09-30T18:49:01.892Z,8.00
2018-09-30T18:51:31.038Z,7.93
2018-09-30T18:54:00.000Z,8.10
2018-09-30T18:56:28.966Z,8.00
2018-09-30T18:58:57.941Z,7.67
2018-09-30T19:01:26.783Z,7.43
2018-09-30T19:03:55.683Z,7.33
2018-09-30T19:06:24.607Z,7.00
2018-09-30T19:08:53.524Z,6.97
2018-09-30T19:11:22.406Z,7.00
2018-09-30T19:13:51.281Z,6.77
2018-09-30T19:16:20.202Z,6.50
2018-09-30T19:18:49.052Z,6.67
2018-09-30T19:21:17.857Z,17.33
2018-09-30T19:23:46.776Z,10.27
2018-09-30T19:26:15.877Z,8.63
2018-09-30T19:28:44.946Z,7.47
2018-09-30T19:31:13.795Z,6.87
2018-09-30T19:33:42.660Z,7.00
2018-09-30T19:36:11.613Z,7.10
2018-09-30T19:38:40.645Z,7.53
2018-09-30T19:41:09.781Z,7.53
2018-09-30T19:43:38.843Z,7.57
2018-09-30T19:46:08.442Z,7.37
2018-09-30T19:48:37.344Z,6.77
2018-09-30T19:51:06.310Z,7.30
2018-09-30T19:53:35.188Z,7.37
2018-09-30T19:56:04.106Z,7.70
2018-09-30T19:58:33.131Z,7.50
2018-09-30T20:01:02.106Z,8.03
2018-09-30T20:03:31.055Z,7.00
2018-09-30T20:05:59.900Z,7.87
2018-09-30T20:08:28.787Z,7.13
2018-09-30T20:10:57.785Z,7.53
2018-09-30T20:13:26.645Z,6.70
2018-09-30T20:15:55.479Z,6.57
2018-09-30T20:18:24.353Z,7.00
2018-09-30T20:20:53.271Z,6.63
2018-09-30T20:23:22.313Z,5.63
2018-09-30T20:25:51.294Z,6.33
2018-09-30T20:28:20.132Z,6.53
2018-09-30T20:30:49.053Z,6.33
2018-09-30T20:33:17.860Z,6.13
2018-09-30T20:35:46.695Z,6.43
2018-09-30T20:38:16.276Z,6.40
2018-09-30T20:40:45.100Z,6.13
2018-09-30T20:43:13.925Z,6.40
2018-09-30T20:45:42.784Z,6.03
2018-09-30T20:48:11.704Z,6.00
2018-09-30T20:50:40.581Z,6.10
2018-09-30T20:53:09.480Z,6.13
2018-09-30T20:55:38.304Z,5.90
2018-09-30T20:58:07.336Z,5.70
2018-09-30T21:00:36.372Z,5.67
2018-09-30T21:03:05.222Z,6.30
2018-09-30T21:05:53.053Z,7.30
2018-09-30T21:08:21.885Z,6.17
2018-09-30T21:10:50.692Z,6.10
2018-09-30T21:13:19.459Z,6.03
2018-09-30T21:15:48.424Z,5.90
2018-09-30T21:18:17.242Z,5.77
2018-09-30T21:20:46.056Z,5.63
2018-09-30T21:23:14.929Z,5.50
2018-09-30T21:25:43.744Z,5.80
2018-09-30T21:28:12.666Z,5.93
2018-09-30T21:30:41.766Z,5.70
2018-09-30T21:33:10.622Z,5.17
2018-09-30T21:35:39.437Z,5.60
2018-09-30T21:38:08.204Z,4.97
2018-09-30T21:40:37.011Z,5.30
2018-09-30T21:43:05.872Z,4.80
2018-09-30T21:45:34.755Z,4.60
2018-09-30T21:48:03.566Z,4.50
2018-09-30T21:50:32.459Z,4.40
2018-09-30T21:53:01.348Z,4.60
2018-09-30T21:55:30.343Z,4.80
2018-09-30T21:57:59.168Z,4.90
2018-09-30T22:00:33.275Z,4.60
2018-09-30T22:03:02.253Z,4.57
2018-09-30T22:05:31.164Z,4.70
2018-09-30T22:08:00.120Z,4.60
2018-09-30T22:10:29.075Z,4.40
2018-09-30T22:12:58.047Z,4.30
2018-09-30T22:15:26.960Z,4.00
2018-09-30T22:17:56.019Z,4.40
2018-09-30T22:20:24.967Z,4.13
2018-09-30T22:22:53.851Z,3.93
2018-09-30T22:25:22.696Z,4.00
2018-09-30T22:27:51.628Z,4.10
2018-09-30T22:30:20.554Z,4.23
2018-09-30T22:32:49.465Z,4.07
2018-09-30T22:35:18.312Z,3.93
2018-09-30T22:37:47.084Z,4.37
2018-09-30T22:40:15.984Z,3.83
2018-09-30T22:42:44.975Z,4.07
2018-09-30T22:45:13.804Z,4.03
2018-09-30T22:47:42.743Z,3.90
2018-09-30T22:50:11.617Z,3.97
2018-09-30T22:52:40.419Z,3.90
2018-09-30T22:55:09.252Z,4.17
2018-09-30T22:57:38.077Z,4.20
2018-09-30T23:00:07.385Z,4.33
2018-09-30T23:02:36.259Z,4.27
2018-09-30T23:05:05.568Z,4.10
2018-09-30T23:07:34.419Z,4.50
2018-09-30T23:10:03.364Z,4.63
2018-09-30T23:12:32.224Z,4.60
2018-09-30T23:15:01.107Z,4.07
2018-09-30T23:17:29.998Z,4.43
2018-09-30T23:19:58.780Z,4.03
2018-09-30T23:22:27.640Z,4.00
2018-09-30T23:24:56.428Z,3.97
2018-09-30T23:27:25.258Z,4.27
2018-09-30T23:29:54.151Z,4.17
2018-09-30T23:32:23.047Z,3.97
2018-09-30T23:34:51.826Z,3.83
2018-09-30T23:37:20.723Z,3.90
2018-09-30T23:39:49.511Z,3.93
2018-09-30T23:42:18.371Z,3.30
2018-09-30T23:44:47.215Z,3.60
2018-09-30T23:47:16.065Z,3.27
2018-09-30T23:49:44.843Z,3.50
2018-09-30T23:52:13.705Z,3.10
2018-09-30T23:54:42.472Z,2.90
2018-09-30T23:57:11.278Z,2.73
2018-09-30T23:59:40.201Z,3.23
